createdAt,value
2018-11-05T00:00:45.668Z,39.23
2018-11-05T00:02:51.048Z,34.87
2018-11-05T00:04:54.616Z,47.83
2018-11-05T00:06:58.294Z,38.23
2018-11-05T00:09:01.844Z,33.13
2018-11-05T00:11:06.032Z,37.83
2018-11-05T00:13:09.701Z,36.37
2018-11-05T00:15:13.274Z,35.63
2018-11-05T00:17:16.895Z,38.27
2018-11-05T00:19:20.495Z,38.00
2018-11-05T00:21:24.016Z,37.30
2018-11-05T00:23:27.684Z,38.83
2018-11-05T00:25:31.314Z,36.80
2018-11-05T00:27:35.129Z,42.90
2018-11-05T00:29:38.827Z,48.33
2018-11-05T00:31:42.372Z,43.87
2018-11-05T00:33:46.196Z,48.30
2018-11-05T00:35:49.916Z,43.53
2018-11-05T00:37:53.489Z,39.83
2018-11-05T00:39:56.985Z,40.53
2018-11-05T00:42:00.543Z,41.60
2018-11-05T00:44:04.247Z,45.00
2018-11-05T00:46:08.163Z,37.93
2018-11-05T00:48:11.764Z,38.37
2018-11-05T00:50:16.277Z,39.30
2018-11-05T00:52:20.260Z,41.30
2018-11-05T00:54:23.958Z,42.87
2018-11-05T00:56:27.769Z,41.10
2018-11-05T00:58:31.360Z,37.50
2018-11-05T01:00:34.955Z,35.77
2018-11-05T01:02:38.752Z,35.77
2018-11-05T01:04:42.390Z,33.43
2018-11-05T01:06:46.074Z,39.23
2018-11-05T01:08:49.640Z,36.20
2018-11-05T01:10:53.233Z,38.87
2018-11-05T01:12:56.901Z,41.73
2018-11-05T01:15:00.537Z,36.53
2018-11-05T01:17:04.224Z,41.63
2018-11-05T01:19:07.792Z,37.67
2018-11-05T01:21:11.380Z,40.20
2018-11-05T01:23:14.969Z,43.83
2018-11-05T01:25:18.760Z,45.37
2018-11-05T01:27:22.312Z,42.03
2018-11-05T01:29:25.936Z,42.60
2018-11-05T01:31:29.530Z,41.40
2018-11-05T01:33:33.304Z,40.10
2018-11-05T01:35:36.936Z,51.20
2018-11-05T01:37:40.555Z,48.83
2018-11-05T01:39:44.112Z,43.53
2018-11-05T01:41:47.656Z,44.20
2018-11-05T01:43:51.585Z,43.33
2018-11-05T01:45:55.203Z,45.10
2018-11-05T01:47:58.719Z,47.13
2018-11-05T01:50:02.348Z,39.97
2018-11-05T01:52:07.699Z,42.87
2018-11-05T01:54:11.264Z,43.40
2018-11-05T01:56:15.029Z,40.10
2018-11-05T01:58:19.205Z,42.50
2018-11-05T02:00:22.751Z,39.00
2018-11-05T02:02:26.484Z,36.37
2018-11-05T02:04:30.155Z,39.57
2018-11-05T02:06:33.852Z,37.57
2018-11-05T02:08:37.411Z,40.57
2018-11-05T02:10:41.177Z,36.60
2018-11-05T02:12:44.782Z,40.07
2018-11-05T02:14:48.544Z,42.13
2018-11-05T02:16:52.079Z,44.17
2018-11-05T02:18:55.668Z,38.00
2018-11-05T02:20:59.216Z,41.07
2018-11-05T02:23:02.704Z,45.00
2018-11-05T02:25:07.484Z,45.90
2018-11-05T02:27:11.055Z,43.73
2018-11-05T02:29:14.688Z,39.40
2018-11-05T02:31:18.285Z,37.53
2018-11-05T02:33:21.831Z,41.30
2018-11-05T02:35:25.416Z,40.00
2018-11-05T02:37:29.042Z,40.33
2018-11-05T02:39:32.835Z,45.20
2018-11-05T02:41:36.393Z,41.10
2018-11-05T02:43:40.005Z,46.17
2018-11-05T02:45:43.605Z,44.47
2018-11-05T02:47:47.337Z,44.23
2018-11-05T02:49:50.920Z,41.50
2018-11-05T02:51:54.515Z,40.57
2018-11-05T02:53:58.367Z,37.93
2018-11-05T02:56:01.890Z,40.13
2018-11-05T02:58:05.528Z,38.17
2018-11-05T03:00:14.196Z,39.23
2018-11-05T03:02:17.748Z,46.33
2018-11-05T03:04:21.481Z,43.47
2018-11-05T03:06:25.175Z,37.37
2018-11-05T03:08:28.701Z,41.50
2018-11-05T03:10:32.231Z,41.30
2018-11-05T03:12:35.962Z,44.03
2018-11-05T03:14:39.521Z,50.37
2018-11-05T03:16:43.060Z,53.20
2018-11-05T03:18:46.732Z,48.53
2018-11-05T03:20:50.304Z,57.23
2018-11-05T03:22:54.083Z,48.83
2018-11-05T03:24:57.764Z,42.50
2018-11-05T03:27:01.440Z,47.60
2018-11-05T03:29:05.140Z,55.50
2018-11-05T03:31:08.676Z,54.60
2018-11-05T03:33:12.444Z,52.23
2018-11-05T03:35:16.167Z,46.60
2018-11-05T03:37:19.759Z,44.00
2018-11-05T03:39:23.336Z,52.50
2018-11-05T03:41:26.969Z,52.60
2018-11-05T03:43:30.564Z,56.37
2018-11-05T03:45:34.283Z,58.50
2018-11-05T03:47:37.897Z,51.77
2018-11-05T03:49:41.504Z,52.03
2018-11-05T03:51:45.052Z,50.00
2018-11-05T03:53:48.864Z,56.80
2018-11-05T03:55:52.440Z,53.37
2018-11-05T03:57:55.961Z,52.60
2018-11-05T03:59:59.640Z,51.23
2018-11-05T04:02:03.211Z,50.80
2018-11-05T04:04:06.975Z,47.13
2018-11-05T04:06:10.542Z,47.80
2018-11-05T04:08:14.152Z,49.83
2018-11-05T04:10:17.771Z,50.47
2018-11-05T04:12:21.507Z,51.63
2018-11-05T04:14:25.335Z,50.00
2018-11-05T04:16:28.888Z,51.40
2018-11-05T04:18:32.585Z,49.40
2018-11-05T04:20:36.172Z,46.57
2018-11-05T04:22:40.208Z,53.40
2018-11-05T04:24:43.865Z,53.43
2018-11-05T04:26:47.483Z,49.00
2018-11-05T04:28:51.007Z,46.63
2018-11-05T04:30:54.507Z,53.47
2018-11-05T04:32:58.048Z,56.53
2018-11-05T04:35:01.701Z,49.23
2018-11-05T04:37:05.445Z,54.17
2018-11-05T04:39:14.305Z,51.23
2018-11-05T04:41:17.850Z,51.20
2018-11-05T04:43:21.532Z,46.73
2018-11-05T04:45:25.308Z,54.17
2018-11-05T04:47:28.881Z,50.00
2018-11-05T04:49:32.397Z,52.37
2018-11-05T04:51:36.060Z,50.57
2018-11-05T04:53:39.944Z,51.23
2018-11-05T04:55:43.467Z,53.20
2018-11-05T04:57:47.163Z,58.53
2018-11-05T04:59:50.745Z,60.03
2018-11-05T05:01:54.364Z,60.13
2018-11-05T05:03:57.984Z,62.17
2018-11-05T05:06:01.573Z,58.60
2018-11-05T05:08:05.468Z,63.63
2018-11-05T05:10:09.771Z,63.40
2018-11-05T05:12:13.576Z,59.03
2018-11-05T05:14:17.187Z,63.17
2018-11-05T05:16:20.779Z,59.77
2018-11-05T05:18:24.231Z,59.77
2018-11-05T05:20:27.767Z,56.57
2018-11-05T05:22:31.397Z,59.37
2018-11-05T05:24:35.052Z,62.23
2018-11-05T05:26:38.629Z,60.03
2018-11-05T05:28:42.143Z,59.37
2018-11-05T05:30:45.769Z,60.30
2018-11-05T05:32:49.903Z,52.73
2018-11-05T05:34:53.475Z,52.20
2018-11-05T05:36:57.214Z,52.03
2018-11-05T05:39:00.771Z,52.73
2018-11-05T05:41:04.521Z,52.00
2018-11-05T05:43:08.202Z,56.23
2018-11-05T05:45:12.528Z,54.63
2018-11-05T05:47:16.055Z,51.37
2018-11-05T05:49:19.865Z,56.57
2018-11-05T05:51:23.627Z,56.37
2018-11-05T05:53:27.271Z,52.47
2018-11-05T05:55:30.853Z,65.63
2018-11-05T05:57:34.400Z,56.13
2018-11-05T05:59:38.001Z,60.90
2018-11-05T06:01:41.549Z,61.80
2018-11-05T06:03:45.102Z,54.23
2018-11-05T06:05:48.885Z,58.07
2018-11-05T06:07:52.411Z,59.80
2018-11-05T06:09:55.956Z,56.90
2018-11-05T06:11:59.477Z,58.30
2018-11-05T06:14:03.735Z,56.27
2018-11-05T06:16:07.252Z,65.43
2018-11-05T06:18:10.822Z,61.13
2018-11-05T06:20:17.400Z,63.63
2018-11-05T06:22:20.994Z,56.50
2018-11-05T06:24:24.544Z,55.83
2018-11-05T06:26:28.110Z,59.13
2018-11-05T06:28:31.925Z,56.80
2018-11-05T06:30:35.480Z,53.33
2018-11-05T06:32:40.101Z,54.50
2018-11-05T06:34:43.589Z,56.03
2018-11-05T06:36:47.267Z,57.40
2018-11-05T06:38:50.857Z,60.10
2018-11-05T06:40:54.355Z,61.33
2018-11-05T06:42:58.001Z,59.97
2018-11-05T06:45:01.603Z,62.17
2018-11-05T06:47:05.140Z,60.50
2018-11-05T06:49:08.888Z,62.23
2018-11-05T06:51:12.407Z,63.50
2018-11-05T06:53:15.978Z,61.13
2018-11-05T06:55:19.692Z,64.27
2018-11-05T06:57:23.365Z,61.93
2018-11-05T06:59:26.916Z,73.23
2018-11-05T07:01:31.541Z,63.97
2018-11-05T07:03:35.165Z,65.63
2018-11-05T07:05:38.716Z,75.30
2018-11-05T07:07:42.407Z,77.83
2018-11-05T07:09:45.992Z,75.43
2018-11-05T07:11:49.725Z,66.13
2018-11-05T07:13:53.269Z,59.53
2018-11-05T07:15:57.107Z,59.73
2018-11-05T07:18:00.678Z,61.87
2018-11-05T07:20:05.292Z,60.23
2018-11-05T07:22:08.833Z,60.30
2018-11-05T07:24:12.547Z,67.93
2018-11-05T07:26:16.342Z,63.43
2018-11-05T07:28:19.884Z,61.57
2018-11-05T07:30:24.370Z,63.50
2018-11-05T07:32:28.099Z,60.33
2018-11-05T07:34:31.732Z,62.10
2018-11-05T07:36:35.189Z,58.47
2018-11-05T07:38:38.904Z,62.87
2018-11-05T07:40:42.544Z,51.47
2018-11-05T07:42:46.119Z,55.63
2018-11-05T07:44:49.686Z,49.17
2018-11-05T07:46:59.641Z,52.63
2018-11-05T07:49:03.234Z,49.37
2018-11-05T07:51:06.933Z,50.23
2018-11-05T07:53:10.472Z,56.33
2018-11-05T07:55:15.294Z,50.97
2018-11-05T07:57:18.868Z,50.90
2018-11-05T07:59:22.792Z,48.33
2018-11-05T08:01:26.325Z,49.93
2018-11-05T08:03:29.984Z,52.80
2018-11-05T08:05:33.501Z,50.40
2018-11-05T08:07:37.044Z,51.47
2018-11-05T08:09:40.576Z,53.77
2018-11-05T08:11:44.368Z,57.80
2018-11-05T08:13:47.926Z,48.43
2018-11-05T08:15:51.549Z,51.87
2018-11-05T08:17:55.340Z,53.90
2018-11-05T08:19:59.292Z,52.53
2018-11-05T08:22:03.104Z,52.73
2018-11-05T08:24:07.042Z,53.53
2018-11-05T08:26:10.606Z,51.03
2018-11-05T08:28:14.130Z,46.93
2018-11-05T08:30:20.221Z,53.93
2018-11-05T08:32:23.732Z,54.33
2018-11-05T08:34:27.465Z,56.40
2018-11-05T08:36:31.036Z,53.30
2018-11-05T08:38:34.622Z,52.53
2018-11-05T08:40:38.137Z,53.93
2018-11-05T08:42:42.339Z,57.23
2018-11-05T08:44:45.932Z,53.20
2018-11-05T08:46:49.668Z,47.60
2018-11-05T08:48:53.205Z,50.23
2018-11-05T08:50:56.942Z,53.83
2018-11-05T08:53:00.501Z,58.83
2018-11-05T08:55:04.269Z,52.43
2018-11-05T08:57:07.905Z,48.37
2018-11-05T08:59:11.412Z,48.90
2018-11-05T09:01:17.388Z,55.43
2018-11-05T09:03:20.910Z,50.87
2018-11-05T09:05:24.859Z,52.93
2018-11-05T09:07:28.530Z,54.53
2018-11-05T09:09:32.212Z,51.87
2018-11-05T09:11:36.691Z,58.40
2018-11-05T09:13:39.843Z,54.53
2018-11-05T09:15:43.624Z,50.47
2018-11-05T09:17:47.391Z,57.50
2018-11-05T09:19:50.967Z,61.17
2018-11-05T09:21:54.512Z,60.63
2018-11-05T09:23:58.050Z,59.40
2018-11-05T09:26:01.696Z,59.20
2018-11-05T09:28:06.195Z,60.93
2018-11-05T09:30:14.205Z,65.03
2018-11-05T09:32:18.177Z,59.20
2018-11-05T09:34:21.688Z,56.13
2018-11-05T09:36:25.260Z,53.83
2018-11-05T09:38:28.827Z,60.13
2018-11-05T09:40:32.377Z,63.40
2018-11-05T09:42:36.063Z,60.03
2018-11-05T09:44:39.607Z,64.30
2018-11-05T09:46:43.236Z,61.40
2018-11-05T09:48:46.736Z,66.10
2018-11-05T09:50:50.375Z,62.27
2018-11-05T09:52:53.834Z,67.13
2018-11-05T09:54:57.411Z,61.13
2018-11-05T09:57:01.174Z,64.10
2018-11-05T09:59:04.856Z,57.10
2018-11-05T10:01:08.635Z,57.23
2018-11-05T10:03:16.319Z,59.30
2018-11-05T10:05:19.941Z,56.33
2018-11-05T10:07:23.403Z,58.73
2018-11-05T10:09:27.008Z,54.77
2018-11-05T10:11:30.590Z,49.57
2018-11-05T10:13:34.376Z,49.70
2018-11-05T10:15:38.109Z,49.40
2018-11-05T10:17:41.824Z,58.90
2018-11-05T10:19:45.307Z,56.63
2018-11-05T10:21:48.995Z,56.03
2018-11-05T10:23:52.528Z,56.70
2018-11-05T10:25:56.073Z,52.97
2018-11-05T10:28:03.418Z,60.67
2018-11-05T10:30:14.732Z,64.27
2018-11-05T10:32:18.271Z,61.47
2018-11-05T10:34:21.941Z,60.93
2018-11-05T10:36:25.467Z,65.57
2018-11-05T10:38:29.001Z,66.13
2018-11-05T10:40:32.620Z,66.47
2018-11-05T10:42:36.093Z,65.20
2018-11-05T10:44:39.787Z,62.53
2018-11-05T10:46:43.308Z,66.50
2018-11-05T10:48:46.908Z,60.27
2018-11-05T10:50:50.436Z,65.73
2018-11-05T10:52:53.992Z,60.13
2018-11-05T10:54:57.504Z,65.10
2018-11-05T10:57:01.246Z,58.53
2018-11-05T10:59:04.750Z,58.20
2018-11-05T11:01:15.395Z,54.20
2018-11-05T11:03:19.715Z,60.20
2018-11-05T11:05:24.066Z,53.33
2018-11-05T11:07:27.607Z,57.10
2018-11-05T11:09:31.431Z,54.10
2018-11-05T11:11:35.037Z,52.20
2018-11-05T11:13:38.572Z,52.93
2018-11-05T11:15:42.112Z,49.63
2018-11-05T11:17:45.752Z,56.43
2018-11-05T11:19:49.295Z,68.90
2018-11-05T11:21:52.995Z,69.57
2018-11-05T11:23:56.587Z,64.40
2018-11-05T11:26:00.098Z,58.13
2018-11-05T11:28:03.642Z,55.57
2018-11-05T11:30:09.145Z,54.50
2018-11-05T11:32:12.811Z,57.57
2018-11-05T11:34:16.576Z,58.00
2018-11-05T11:36:20.991Z,55.00
2018-11-05T11:38:24.773Z,56.07
2018-11-05T11:40:28.407Z,54.30
2018-11-05T11:42:31.965Z,53.90
2018-11-05T11:44:35.534Z,56.77
2018-11-05T11:46:39.091Z,54.00
2018-11-05T11:48:42.595Z,57.00
2018-11-05T11:50:46.118Z,53.33
2018-11-05T11:52:50.288Z,52.50
2018-11-05T11:54:53.684Z,54.90
2018-11-05T11:56:57.367Z,53.03
2018-11-05T11:59:00.896Z,55.53
2018-11-05T12:01:04.777Z,60.33
2018-11-05T12:03:08.512Z,53.63
2018-11-05T12:05:12.225Z,56.27
2018-11-05T12:07:15.841Z,50.03
2018-11-05T12:09:19.335Z,53.80
2018-11-05T12:11:22.926Z,60.83
2018-11-05T12:13:26.537Z,65.00
2018-11-05T12:15:30.290Z,58.30
2018-11-05T12:17:33.856Z,58.83
2018-11-05T12:19:37.365Z,56.73
2018-11-05T12:21:40.969Z,53.63
2018-11-05T12:23:44.496Z,60.67
2018-11-05T12:25:48.026Z,55.97
2018-11-05T12:27:51.625Z,52.50
2018-11-05T12:29:55.216Z,49.07
2018-11-05T12:31:58.832Z,52.40
2018-11-05T12:34:02.385Z,49.83
2018-11-05T12:36:06.568Z,49.90
2018-11-05T12:38:10.234Z,46.93
2018-11-05T12:40:15.372Z,45.53
2018-11-05T12:42:18.932Z,48.00
2018-11-05T12:44:22.556Z,45.27
2018-11-05T12:46:26.184Z,46.20
2018-11-05T12:48:29.706Z,47.50
2018-11-05T12:50:33.260Z,47.33
2018-11-05T12:52:36.892Z,49.57
2018-11-05T12:54:40.487Z,51.43
2018-11-05T12:56:44.006Z,50.43
2018-11-05T12:58:47.646Z,49.83
2018-11-05T13:00:51.220Z,49.47
2018-11-05T13:02:57.065Z,47.97
2018-11-05T13:05:00.592Z,48.80
2018-11-05T13:07:04.358Z,47.80
2018-11-05T13:09:09.125Z,54.63
2018-11-05T13:11:13.889Z,45.80
2018-11-05T13:13:17.469Z,51.73
2018-11-05T13:15:21.720Z,45.73
2018-11-05T13:17:25.148Z,49.93
2018-11-05T13:19:28.776Z,44.97
2018-11-05T13:21:32.399Z,45.77
2018-11-05T13:23:40.968Z,45.03
2018-11-05T13:25:44.488Z,51.27
2018-11-05T13:27:49.210Z,46.53
2018-11-05T13:29:52.793Z,53.00
2018-11-05T13:31:56.410Z,44.67
2018-11-05T13:34:00.186Z,48.80
2018-11-05T13:36:03.905Z,52.47
2018-11-05T13:38:08.072Z,52.60
2018-11-05T13:40:13.640Z,53.97
2018-11-05T13:42:17.208Z,47.00
2018-11-05T13:44:20.800Z,50.37
2018-11-05T13:46:24.869Z,44.17
2018-11-05T13:48:28.555Z,42.73
2018-11-05T13:50:31.900Z,41.27
2018-11-05T13:52:35.417Z,35.00
2018-11-05T13:54:39.180Z,45.67
2018-11-05T13:56:42.486Z,47.60
2018-11-05T13:58:46.260Z,46.70
2018-11-05T14:00:49.799Z,39.57
2018-11-05T14:02:53.473Z,39.50
2018-11-05T14:04:57.033Z,41.03
2018-11-05T14:07:00.684Z,39.97
2018-11-05T14:09:05.924Z,40.67
2018-11-05T14:11:09.488Z,34.00
2018-11-05T14:13:13.137Z,36.17
2018-11-05T14:15:16.767Z,39.73
2018-11-05T14:17:20.267Z,32.60
2018-11-05T14:19:24.008Z,31.03
2018-11-05T14:21:27.804Z,39.43
2018-11-05T14:23:31.325Z,35.83
2018-11-05T14:25:34.913Z,30.07
2018-11-05T14:27:38.754Z,27.83
2018-11-05T14:29:43.080Z,32.83
2018-11-05T14:31:45.908Z,34.10
2018-11-05T14:33:49.591Z,45.63
2018-11-05T14:35:53.218Z,40.23
2018-11-05T14:37:57.000Z,37.83
2018-11-05T14:40:00.505Z,40.50
2018-11-05T14:42:04.199Z,41.87
2018-11-05T14:44:07.998Z,45.57
2018-11-05T14:46:11.530Z,44.00
2018-11-05T14:48:15.114Z,37.60
2018-11-05T14:50:20.092Z,42.80
2018-11-05T14:52:23.837Z,39.40
2018-11-05T14:54:27.468Z,45.53
2018-11-05T14:56:31.076Z,45.50
2018-11-05T14:58:34.659Z,46.43
2018-11-05T15:00:38.433Z,40.30
2018-11-05T15:02:42.359Z,46.17
2018-11-05T15:04:46.063Z,42.30
2018-11-05T15:06:49.635Z,39.93
2018-11-05T15:08:53.227Z,43.07
2018-11-05T15:10:56.773Z,40.37
2018-11-05T15:13:00.418Z,44.60
2018-11-05T15:15:04.043Z,43.93
2018-11-05T15:17:08.363Z,38.27
2018-11-05T15:19:12.450Z,40.20
2018-11-05T15:21:15.861Z,42.13
2018-11-05T15:23:19.329Z,40.90
2018-11-05T15:25:23.050Z,41.40
2018-11-05T15:27:26.723Z,46.83
2018-11-05T15:29:30.510Z,45.27
2018-11-05T15:31:34.101Z,43.23
2018-11-05T15:33:37.676Z,38.07
2018-11-05T15:35:41.309Z,44.30
2018-11-05T15:37:45.428Z,43.20
2018-11-05T15:39:48.989Z,44.67
2018-11-05T15:41:52.640Z,43.63
2018-11-05T15:43:56.168Z,40.40
2018-11-05T15:45:59.907Z,41.23
2018-11-05T15:48:03.460Z,45.57
2018-11-05T15:50:09.259Z,43.50
2018-11-05T15:52:13.349Z,46.40
2018-11-05T15:54:16.636Z,44.17
2018-11-05T15:56:20.252Z,49.33
2018-11-05T15:58:24.013Z,41.40
2018-11-05T16:00:27.534Z,53.13
2018-11-05T16:02:31.073Z,50.10
2018-11-05T16:04:34.920Z,51.40
2018-11-05T16:06:38.529Z,44.77
2018-11-05T16:08:42.068Z,47.37
2018-11-05T16:10:45.633Z,48.67
2018-11-05T16:12:49.487Z,46.87
2018-11-05T16:14:53.297Z,52.00
2018-11-05T16:16:56.743Z,52.20
2018-11-05T16:19:00.280Z,71.97
2018-11-05T16:21:03.973Z,58.27
2018-11-05T16:23:07.518Z,51.13
2018-11-05T16:25:11.159Z,47.47
2018-11-05T16:27:14.839Z,48.07
2018-11-05T16:29:18.400Z,54.57
2018-11-05T16:31:22.069Z,46.83
2018-11-05T16:33:25.831Z,53.63
2018-11-05T16:35:29.459Z,47.20
2018-11-05T16:37:32.984Z,44.23
2018-11-05T16:39:36.663Z,49.20
2018-11-05T16:41:40.758Z,43.47
2018-11-05T16:43:46.124Z,42.87
2018-11-05T16:45:49.773Z,45.93
2018-11-05T16:47:53.339Z,46.57
2018-11-05T16:49:56.855Z,45.03
2018-11-05T16:52:00.456Z,51.73
2018-11-05T16:54:04.679Z,42.67
2018-11-05T16:56:08.228Z,44.77
2018-11-05T16:58:11.810Z,147.47
2018-11-05T17:00:15.592Z,108.53
2018-11-05T17:02:19.596Z,73.83
2018-11-05T17:04:22.732Z,54.17
2018-11-05T17:06:26.509Z,52.87
2018-11-05T17:08:30.061Z,54.30
2018-11-05T17:10:33.812Z,43.27
2018-11-05T17:12:37.586Z,46.43
2018-11-05T17:14:41.129Z,48.87
2018-11-05T17:16:44.745Z,46.47
2018-11-05T17:18:48.317Z,93.00
2018-11-05T17:20:52.102Z,86.97
2018-11-05T17:22:55.652Z,64.17
2018-11-05T17:24:59.240Z,57.47
2018-11-05T17:27:02.834Z,57.03
2018-11-05T17:29:06.649Z,51.43
2018-11-05T17:31:10.412Z,40.97
2018-11-05T17:33:14.073Z,37.10
2018-11-05T17:35:18.190Z,40.77
2018-11-05T17:37:21.957Z,38.97
2018-11-05T17:39:25.718Z,35.17
2018-11-05T17:41:29.280Z,40.60
2018-11-05T17:43:32.948Z,37.27
2018-11-05T17:45:36.460Z,42.70
2018-11-05T17:47:40.288Z,46.17
2018-11-05T17:49:43.882Z,45.53
2018-11-05T17:51:47.501Z,51.67
2018-11-05T17:53:51.011Z,44.30
2018-11-05T17:55:54.559Z,43.77
2018-11-05T17:57:58.136Z,38.93
2018-11-05T18:00:01.872Z,39.73
2018-11-05T18:02:05.719Z,34.47
2018-11-05T18:04:09.421Z,36.30
2018-11-05T18:06:12.887Z,33.50
2018-11-05T18:08:16.606Z,42.17
2018-11-05T18:10:20.214Z,38.97
2018-11-05T18:12:24.108Z,33.33
2018-11-05T18:14:27.762Z,34.33
2018-11-05T18:16:31.395Z,36.27
2018-11-05T18:18:34.929Z,33.03
2018-11-05T18:20:38.567Z,30.80
2018-11-05T18:22:42.221Z,31.63
2018-11-05T18:24:45.839Z,41.33
2018-11-05T18:26:49.423Z,31.33
2018-11-05T18:28:53.117Z,31.87
2018-11-05T18:30:56.877Z,34.37
2018-11-05T18:33:00.440Z,30.07
2018-11-05T18:35:04.237Z,30.10
2018-11-05T18:37:07.900Z,33.40
2018-11-05T18:39:11.500Z,33.93
2018-11-05T18:41:15.182Z,29.70
2018-11-05T18:43:19.224Z,31.60
2018-11-05T18:45:23.552Z,31.87
2018-11-05T18:47:27.223Z,27.87
2018-11-05T18:49:30.771Z,30.37
2018-11-05T18:51:34.459Z,34.20
2018-11-05T18:53:38.092Z,28.20
2018-11-05T18:55:41.691Z,39.80
2018-11-05T18:57:45.320Z,31.97
2018-11-05T18:59:48.931Z,37.10
2018-11-05T19:01:52.517Z,41.60
2018-11-05T19:03:56.113Z,38.23
2018-11-05T19:05:59.805Z,38.10
2018-11-05T19:08:03.505Z,30.80
2018-11-05T19:10:07.166Z,28.83
2018-11-05T19:12:10.852Z,30.23
2018-11-05T19:14:14.463Z,27.43
2018-11-05T19:16:18.131Z,28.27
2018-11-05T19:18:21.687Z,29.17
2018-11-05T19:20:25.417Z,30.67
2018-11-05T19:22:29.014Z,30.40
2018-11-05T19:24:32.765Z,32.23
2018-11-05T19:26:36.251Z,30.97
2018-11-05T19:28:40.041Z,31.70
2018-11-05T19:30:43.553Z,33.63
2018-11-05T19:32:47.299Z,36.37
2018-11-05T19:34:50.857Z,32.00
2018-11-05T19:36:54.436Z,36.47
2018-11-05T19:38:58.045Z,32.10
2018-11-05T19:41:01.619Z,34.33
2018-11-05T19:43:05.526Z,35.13
2018-11-05T19:45:13.599Z,33.00
2018-11-05T19:47:17.124Z,32.77
2018-11-05T19:49:21.005Z,34.30
2018-11-05T19:51:24.669Z,32.60
2018-11-05T19:53:28.517Z,31.20
2018-11-05T19:55:32.014Z,30.67
2018-11-05T19:57:36.192Z,33.63
2018-11-05T19:59:39.861Z,33.27
2018-11-05T20:01:43.468Z,32.37
2018-11-05T20:03:47.093Z,37.00
2018-11-05T20:05:50.870Z,33.03
2018-11-05T20:07:55.118Z,32.37
2018-11-05T20:09:58.997Z,36.63
2018-11-05T20:12:02.622Z,32.93
2018-11-05T20:14:06.291Z,37.90
2018-11-05T20:16:10.031Z,38.57
2018-11-05T20:18:13.685Z,41.10
2018-11-05T20:20:18.686Z,41.67
2018-11-05T20:22:22.341Z,43.37
2018-11-05T20:24:26.024Z,36.80
2018-11-05T20:26:29.672Z,35.70
2018-11-05T20:28:33.381Z,32.70
2018-11-05T20:30:38.966Z,35.97
2018-11-05T20:32:41.397Z,37.97
2018-11-05T20:34:44.589Z,35.80
2018-11-05T20:36:48.716Z,38.43
2018-11-05T20:38:52.378Z,38.53
2018-11-05T20:40:56.066Z,36.63
2018-11-05T20:42:59.813Z,39.30
2018-11-05T20:45:03.454Z,35.27
2018-11-05T20:47:07.664Z,33.80
2018-11-05T20:49:11.255Z,40.20
2018-11-05T20:51:14.912Z,34.47
2018-11-05T20:53:18.728Z,30.37
2018-11-05T20:55:22.298Z,35.23
2018-11-05T20:57:26.004Z,37.57
2018-11-05T20:59:29.610Z,29.80
2018-11-05T21:01:33.312Z,32.93
2018-11-05T21:03:37.062Z,33.27
2018-11-05T21:05:40.773Z,32.03
2018-11-05T21:07:44.850Z,32.63
2018-11-05T21:09:48.406Z,32.80
2018-11-05T21:11:52.180Z,34.63
2018-11-05T21:13:55.810Z,30.30
2018-11-05T21:15:59.491Z,39.50
2018-11-05T21:18:03.140Z,39.53
2018-11-05T21:20:06.790Z,44.00
2018-11-05T21:22:12.135Z,48.17
2018-11-05T21:24:15.648Z,47.87
2018-11-05T21:26:19.223Z,42.23
2018-11-05T21:28:22.967Z,40.40
2018-11-05T21:30:26.592Z,36.97
2018-11-05T21:32:30.074Z,37.03
2018-11-05T21:34:33.815Z,41.17
2018-11-05T21:36:37.444Z,39.70
2018-11-05T21:38:41.074Z,38.97
2018-11-05T21:40:44.930Z,64.57
2018-11-05T21:42:48.418Z,64.93
2018-11-05T21:44:52.051Z,72.77
2018-11-05T21:46:55.668Z,67.00
2018-11-05T21:48:59.432Z,57.20
2018-11-05T21:51:03.108Z,63.70
2018-11-05T21:53:06.619Z,71.03
2018-11-05T21:55:10.360Z,68.27
2018-11-05T21:57:13.928Z,66.33
2018-11-05T21:59:17.501Z,62.50
2018-11-05T22:01:21.303Z,62.37
2018-11-05T22:03:25.288Z,59.70
2018-11-05T22:05:28.950Z,59.83
2018-11-05T22:07:32.746Z,58.77
2018-11-05T22:09:36.474Z,57.90
2018-11-05T22:11:40.248Z,69.07
2018-11-05T22:13:43.857Z,115.73
2018-11-05T22:15:48.040Z,115.53
2018-11-05T22:17:51.754Z,113.43
2018-11-05T22:19:55.614Z,171.77
2018-11-05T22:21:59.243Z,189.07
2018-11-05T22:24:03.129Z,146.60
2018-11-05T22:26:06.818Z,143.03
2018-11-05T22:28:10.612Z,121.20
2018-11-05T22:30:14.325Z,97.70
2018-11-05T22:32:17.897Z,119.50
2018-11-05T22:34:21.496Z,67.60
2018-11-05T22:36:25.131Z,64.83
2018-11-05T22:38:28.856Z,76.33
2018-11-05T22:40:32.797Z,69.73
2018-11-05T22:42:36.423Z,66.50
2018-11-05T22:44:40.239Z,44.03
2018-11-05T22:46:43.855Z,44.77
2018-11-05T22:48:47.556Z,42.47
2018-11-05T22:50:51.160Z,40.77
2018-11-05T22:52:54.711Z,44.40
2018-11-05T22:54:58.363Z,42.47
2018-11-05T22:57:02.137Z,42.93
2018-11-05T22:59:05.807Z,43.63
2018-11-05T23:01:13.604Z,49.43
2018-11-05T23:03:22.795Z,42.73
2018-11-05T23:05:26.375Z,40.27
2018-11-05T23:07:29.952Z,36.83
2018-11-05T23:09:33.726Z,36.10
2018-11-05T23:11:37.371Z,38.93
2018-11-05T23:13:41.039Z,41.97
2018-11-05T23:15:44.704Z,39.23
2018-11-05T23:17:48.771Z,50.27
2018-11-05T23:19:52.342Z,38.60
2018-11-05T23:21:55.978Z,38.67
2018-11-05T23:23:59.692Z,36.47
2018-11-05T23:26:03.356Z,41.93
2018-11-05T23:28:07.247Z,45.93
2018-11-05T23:30:12.500Z,45.30
2018-11-05T23:32:16.097Z,43.30
2018-11-05T23:34:19.682Z,50.33
2018-11-05T23:36:23.379Z,64.33
2018-11-05T23:38:27.122Z,58.43
2018-11-05T23:40:30.812Z,44.57
2018-11-05T23:42:34.530Z,58.37
2018-11-05T23:44:38.232Z,54.63
2018-11-05T23:46:41.807Z,39.33
2018-11-05T23:48:45.427Z,42.30
2018-11-05T23:50:49.161Z,40.10
2018-11-05T23:52:52.851Z,39.27
2018-11-05T23:54:56.609Z,42.37
2018-11-05T23:57:00.163Z,36.37
2018-11-05T23:59:03.859Z,44.17
